Tolstoy, South Dakota
Current Conditions -  °F | °C
As of 8:52 PM on Friday 21 Nov 2014 (Local Time) from KMBG Reporting Station
Clear Clear  
Wind Chill: 26°   Ceiling: Unl
Heat Index: 32°   Visibility: 10mi
Dew Point: 27°   Wind: 7mph
Humidity: 82%   Direction: 140°SE
Pressure: 29.75"   Gusts: NA
Location:  45.21°N, 99.61°W
Report Text: KMBG 220252Z AUTO 14006KT 10SM CLR 00/M03 A2975 RMK AO2 SLP096 T00001028 58002
Loading
Personal Weather Stations






























Interactive Weather Map New forecast layout! Learn more

10-Day Weather Forecast

Advertisements
Track Severe Weather on mobile